createdAt,value
2023-03-23T15:59:36.392Z,26.57
2023-03-23T16:04:37.875Z,26.52
2023-03-23T16:09:40.745Z,19.17
2023-03-23T16:14:42.268Z,26.58
2023-03-23T16:19:43.748Z,21.70
2023-03-23T16:24:45.295Z,30.10
2023-03-23T16:30:02.953Z,24.85
2023-03-23T16:35:05.864Z,21.33
2023-03-23T16:40:08.421Z,24.27
2023-03-23T16:45:10.310Z,27.67
2023-03-23T16:50:14.087Z,26.85
2023-03-23T16:55:16.405Z,22.60
2023-03-23T17:00:22.054Z,19.98
2023-03-23T17:05:28.535Z,23.98
2023-03-23T17:10:31.835Z,20.77
2023-03-23T17:15:33.362Z,20.20
2023-03-23T17:20:35.105Z,18.63
2023-03-23T17:25:36.610Z,20.88
2023-03-23T17:30:41.895Z,21.50
2023-03-23T17:35:45.959Z,18.45
2023-03-23T17:40:47.627Z,18.98
2023-03-23T17:45:49.252Z,18.88
2023-03-23T17:50:54.389Z,21.48
2023-03-23T17:55:56.316Z,21.20
2023-03-23T18:00:57.827Z,20.38
2023-03-23T18:06:04.038Z,19.33
2023-03-23T18:11:05.893Z,20.23
2023-03-23T18:16:08.128Z,14.90
2023-03-23T18:21:10.143Z,14.65
2023-03-23T18:26:13.403Z,22.90
2023-03-23T18:31:15.972Z,17.88
2023-03-23T18:36:19.098Z,18.83
2023-03-23T18:41:20.842Z,17.13
2023-03-23T18:46:22.411Z,16.38
2023-03-23T18:51:25.966Z,12.05
2023-03-23T18:56:27.533Z,14.95
2023-03-23T19:01:29.084Z,13.82
2023-03-23T19:06:30.656Z,16.50
2023-03-23T19:11:32.190Z,13.32
2023-03-23T19:16:35.662Z,14.00
2023-03-23T19:21:37.879Z,11.85
2023-03-23T19:26:43.434Z,16.95
2023-03-23T19:31:46.363Z,16.77
2023-03-23T19:36:53.758Z,13.43
2023-03-23T19:41:57.611Z,12.25
2023-03-23T19:46:59.102Z,18.42
2023-03-23T19:52:08.780Z,14.13
2023-03-23T19:57:13.966Z,17.65
2023-03-23T20:02:15.526Z,11.38
2023-03-23T20:07:17.022Z,18.40
2023-03-23T20:12:18.545Z,18.33
2023-03-23T20:17:20.004Z,19.98
2023-03-23T20:22:21.502Z,16.65
2023-03-23T20:27:23.382Z,20.77
2023-03-23T20:32:24.868Z,19.55
2023-03-23T20:37:26.933Z,20.98
2023-03-23T20:42:29.485Z,22.52
2023-03-23T20:47:31.404Z,20.65
2023-03-23T20:52:32.875Z,23.38
2023-03-23T20:57:34.522Z,14.88
2023-03-23T21:02:36.059Z,13.80
2023-03-23T21:07:37.541Z,20.48
2023-03-23T21:12:38.986Z,16.80
2023-03-23T21:17:40.548Z,20.45
2023-03-23T21:22:42.201Z,14.57
2023-03-23T21:27:43.942Z,18.92
2023-03-23T21:32:45.466Z,11.15
2023-03-23T21:37:48.564Z,16.85
2023-03-23T21:42:51.536Z,13.68
2023-03-23T21:47:57.046Z,15.68
2023-03-23T21:52:58.638Z,18.52
2023-03-23T21:58:00.279Z,13.90
2023-03-23T22:03:02.674Z,14.07
2023-03-23T22:08:04.428Z,14.18
2023-03-23T22:13:06.532Z,10.68
2023-03-23T22:18:08.021Z,12.90
2023-03-23T22:23:09.792Z,13.18
2023-03-23T22:28:11.667Z,12.00
2023-03-23T22:33:13.187Z,11.55
2023-03-23T22:38:14.646Z,14.35
2023-03-23T22:43:16.898Z,13.23
2023-03-23T22:48:21.814Z,15.18
2023-03-23T22:53:23.314Z,13.70
2023-03-23T22:58:25.843Z,15.43
2023-03-23T23:03:27.756Z,14.43
2023-03-23T23:08:29.897Z,15.95
2023-03-23T23:13:33.138Z,18.60
2023-03-23T23:18:35.335Z,14.85
2023-03-23T23:23:37.436Z,14.65
2023-03-23T23:28:38.893Z,16.92
2023-03-23T23:33:40.355Z,14.88
2023-03-23T23:38:41.820Z,14.48
2023-03-23T23:43:43.298Z,17.15
2023-03-23T23:48:44.935Z,16.52
2023-03-23T23:53:53.143Z,20.10
2023-03-23T23:58:54.629Z,22.25
